createdAt,value
2024-02-19T00:02:51.230Z,86.10
2024-02-19T00:05:54.340Z,85.90
2024-02-19T00:08:57.374Z,86.00
2024-02-19T00:12:00.613Z,86.00
2024-02-19T00:15:07.068Z,86.20
2024-02-19T00:18:10.272Z,86.10
2024-02-19T00:21:13.782Z,85.80
2024-02-19T00:24:16.847Z,86.00
2024-02-19T00:27:19.923Z,85.90
2024-02-19T00:30:24.503Z,85.60
2024-02-19T00:33:27.674Z,85.50
2024-02-19T00:36:30.732Z,85.60
2024-02-19T00:39:33.791Z,85.50
2024-02-19T00:42:37.673Z,85.80
2024-02-19T00:45:42.232Z,86.10
2024-02-19T00:48:45.373Z,85.70
2024-02-19T00:51:48.559Z,85.60
2024-02-19T00:54:51.655Z,85.50
2024-02-19T00:57:54.811Z,85.50
2024-02-19T01:00:59.772Z,85.50
2024-02-19T01:04:03.141Z,85.50
2024-02-19T01:07:06.257Z,85.10
2024-02-19T01:10:10.870Z,85.20
2024-02-19T01:13:14.291Z,85.00
2024-02-19T01:16:19.090Z,84.80
2024-02-19T01:19:22.482Z,84.80
2024-02-19T01:22:28.545Z,84.70
2024-02-19T01:25:31.619Z,84.40
2024-02-19T01:28:34.733Z,84.50
2024-02-19T01:31:39.122Z,84.30
2024-02-19T01:34:42.428Z,84.30
2024-02-19T01:37:45.561Z,83.60
2024-02-19T01:40:48.647Z,83.30
2024-02-19T01:43:52.080Z,83.40
2024-02-19T01:46:57.355Z,83.30
2024-02-19T01:50:00.588Z,83.30
2024-02-19T01:53:06.150Z,83.20
2024-02-19T01:56:09.386Z,83.10
2024-02-19T01:59:14.040Z,83.10
2024-02-19T02:02:19.453Z,82.80
2024-02-19T02:05:22.695Z,82.60
2024-02-19T02:08:26.178Z,82.50
2024-02-19T02:11:29.510Z,82.20
2024-02-19T02:14:32.748Z,82.30
2024-02-19T02:17:37.240Z,82.60
2024-02-19T02:20:40.715Z,82.60
2024-02-19T02:23:43.813Z,82.70
2024-02-19T02:26:48.229Z,82.50
2024-02-19T02:29:51.326Z,82.50
2024-02-19T02:32:57.124Z,82.10
2024-02-19T02:36:00.856Z,82.20
2024-02-19T02:39:03.980Z,82.40
2024-02-19T02:42:08.900Z,82.50
2024-02-19T02:45:12.430Z,82.70
2024-02-19T02:48:15.827Z,83.10
2024-02-19T02:51:18.988Z,83.30
2024-02-19T02:54:22.114Z,83.50
2024-02-19T02:57:26.634Z,83.70
2024-02-19T03:00:29.707Z,83.80
2024-02-19T03:03:37.014Z,83.90
2024-02-19T03:06:40.272Z,84.10
2024-02-19T03:09:43.345Z,84.20
2024-02-19T03:12:47.892Z,84.60
2024-02-19T03:15:51.121Z,84.90
2024-02-19T03:18:55.412Z,85.00
2024-02-19T03:21:58.649Z,84.90
2024-02-19T03:25:01.946Z,85.00
2024-02-19T03:28:07.041Z,85.20
2024-02-19T03:31:10.171Z,85.10
2024-02-19T03:34:13.445Z,85.00
2024-02-19T03:37:18.012Z,85.20
2024-02-19T03:40:21.271Z,85.50
2024-02-19T03:43:26.896Z,85.60
2024-02-19T03:46:30.070Z,85.40
2024-02-19T03:49:33.210Z,86.00
2024-02-19T03:52:36.587Z,86.30
2024-02-19T03:55:39.911Z,86.40
2024-02-19T03:58:44.404Z,86.20
2024-02-19T04:01:47.521Z,86.10
2024-02-19T04:04:50.741Z,86.40
2024-02-19T04:07:54.189Z,86.60
2024-02-19T04:10:57.267Z,86.70
2024-02-19T04:14:01.847Z,86.70
2024-02-19T04:17:06.931Z,86.60
2024-02-19T04:20:11.016Z,86.90
2024-02-19T04:23:14.100Z,86.80
2024-02-19T04:26:17.205Z,86.80
2024-02-19T04:29:21.761Z,86.70
2024-02-19T04:32:25.087Z,86.30
2024-02-19T04:35:28.136Z,86.10
2024-02-19T04:38:31.198Z,86.00
2024-02-19T04:41:34.481Z,86.00
2024-02-19T04:44:40.238Z,86.10
2024-02-19T04:47:43.299Z,86.00
2024-02-19T04:50:46.550Z,85.90
2024-02-19T04:53:49.696Z,85.50
2024-02-19T04:56:53.976Z,85.50
2024-02-19T04:59:58.397Z,85.30
2024-02-19T05:03:01.546Z,85.20
2024-02-19T05:06:04.789Z,85.00
2024-02-19T05:09:09.024Z,84.90
2024-02-19T05:12:12.102Z,84.70
2024-02-19T05:15:17.086Z,83.90
2024-02-19T05:18:20.432Z,83.40
2024-02-19T05:21:23.789Z,83.30
2024-02-19T05:24:26.887Z,83.20
2024-02-19T05:27:29.995Z,83.20
2024-02-19T05:30:34.532Z,83.20
2024-02-19T05:33:38.121Z,83.20
2024-02-19T05:36:41.317Z,83.00
2024-02-19T05:39:44.777Z,83.00
2024-02-19T05:42:48.333Z,83.00
2024-02-19T05:45:54.207Z,82.80
2024-02-19T05:48:57.558Z,82.60
2024-02-19T05:52:00.764Z,82.70
2024-02-19T05:55:05.199Z,82.70
2024-02-19T05:58:08.328Z,82.20
2024-02-19T06:01:13.907Z,82.20
2024-02-19T06:04:17.309Z,82.20
2024-02-19T06:07:20.465Z,82.20
2024-02-19T06:10:23.633Z,82.00
2024-02-19T06:13:27.060Z,82.00
2024-02-19T06:16:31.553Z,81.00
2024-02-19T06:19:34.830Z,80.90
2024-02-19T06:22:37.928Z,80.70
2024-02-19T06:25:41.031Z,80.40
2024-02-19T06:28:44.093Z,80.60
2024-02-19T06:31:51.128Z,80.60
2024-02-19T06:34:54.249Z,80.20
2024-02-19T06:37:57.673Z,80.90
2024-02-19T06:41:00.795Z,81.20
2024-02-19T06:44:04.269Z,81.50
2024-02-19T06:47:08.743Z,81.60
2024-02-19T06:50:12.312Z,82.00
2024-02-19T06:53:15.335Z,82.40
2024-02-19T06:56:18.445Z,82.70
2024-02-19T06:59:21.525Z,82.80
2024-02-19T07:02:26.382Z,82.70
2024-02-19T07:05:29.603Z,83.00
2024-02-19T07:08:32.840Z,83.10
2024-02-19T07:11:39.422Z,83.20
2024-02-19T07:14:43.041Z,83.40
2024-02-19T07:17:47.488Z,83.70
2024-02-19T07:20:50.582Z,83.90
2024-02-19T07:23:53.653Z,84.00
2024-02-19T07:26:58.540Z,84.40
2024-02-19T07:30:01.756Z,84.70
2024-02-19T07:33:06.816Z,84.80
2024-02-19T07:36:10.279Z,85.00
2024-02-19T07:39:13.488Z,84.90
2024-02-19T07:42:16.524Z,84.50
2024-02-19T07:45:20.582Z,84.50
2024-02-19T07:48:25.102Z,84.70
2024-02-19T07:51:28.360Z,84.60
2024-02-19T07:54:31.514Z,84.80
2024-02-19T07:57:34.590Z,84.50
2024-02-19T08:00:38.598Z,84.20
2024-02-19T08:03:43.776Z,84.40
2024-02-19T08:06:47.415Z,84.40
2024-02-19T08:09:50.957Z,84.40
2024-02-19T08:12:54.525Z,84.40
2024-02-19T08:15:57.767Z,84.20
2024-02-19T08:19:02.570Z,83.80
2024-02-19T08:22:06.303Z,83.80
2024-02-19T08:25:09.401Z,83.30
2024-02-19T08:28:12.581Z,83.50
2024-02-19T08:31:15.866Z,83.10
2024-02-19T08:34:20.803Z,83.10
2024-02-19T08:37:23.990Z,83.00
2024-02-19T08:40:27.540Z,83.20
2024-02-19T08:43:33.797Z,83.10
2024-02-19T08:46:37.015Z,83.20
2024-02-19T08:49:42.957Z,83.00
2024-02-19T08:52:46.089Z,82.60
2024-02-19T08:55:49.162Z,81.90
2024-02-19T08:58:52.235Z,81.40
2024-02-19T09:01:55.699Z,81.00
2024-02-19T09:05:01.365Z,80.90
2024-02-19T09:08:05.011Z,80.70
2024-02-19T09:11:08.093Z,80.40
2024-02-19T09:14:11.233Z,80.70
2024-02-19T09:17:15.650Z,79.90
2024-02-19T09:20:20.155Z,79.40
2024-02-19T09:23:23.449Z,80.00
2024-02-19T09:26:26.497Z,80.00
2024-02-19T09:29:34.898Z,79.90
2024-02-19T09:32:39.177Z,80.10
2024-02-19T09:35:43.634Z,80.30
2024-02-19T09:38:46.938Z,80.00
2024-02-19T09:41:50.110Z,80.00
2024-02-19T09:44:55.187Z,80.30
2024-02-19T09:48:02.463Z,80.80
2024-02-19T09:51:10.548Z,81.20
2024-02-19T09:54:16.734Z,80.70
2024-02-19T09:57:21.109Z,80.80
2024-02-19T10:00:24.645Z,81.10
2024-02-19T10:03:28.118Z,81.20
2024-02-19T10:06:37.202Z,80.80
2024-02-19T10:09:41.008Z,80.60
2024-02-19T10:12:44.716Z,80.60
2024-02-19T10:15:48.070Z,80.90
2024-02-19T10:18:53.904Z,80.80
2024-02-19T10:21:59.786Z,81.10
2024-02-19T10:25:05.174Z,81.00
2024-02-19T10:28:10.908Z,81.20
2024-02-19T10:31:15.021Z,80.80
2024-02-19T10:34:18.342Z,80.90
2024-02-19T10:37:23.021Z,80.90
2024-02-19T10:40:26.809Z,81.10
2024-02-19T10:43:30.291Z,81.10
2024-02-19T10:46:34.406Z,81.20
2024-02-19T10:49:37.662Z,81.20
2024-02-19T10:52:43.027Z,81.70
2024-02-19T10:55:53.734Z,81.10
2024-02-19T10:59:00.766Z,81.30
2024-02-19T11:02:09.595Z,80.90
2024-02-19T11:05:14.015Z,80.80
2024-02-19T11:08:23.055Z,80.30
2024-02-19T11:11:26.297Z,80.00
2024-02-19T11:14:32.095Z,80.10
2024-02-19T11:17:35.455Z,79.60
2024-02-19T11:20:39.053Z,80.00
2024-02-19T11:23:43.627Z,80.30
2024-02-19T11:26:46.905Z,80.30
2024-02-19T11:29:56.200Z,80.10
2024-02-19T11:33:03.518Z,79.80
2024-02-19T11:36:07.169Z,79.70
2024-02-19T11:39:12.107Z,79.70
2024-02-19T11:42:17.565Z,80.30
2024-02-19T11:45:21.978Z,80.40
2024-02-19T11:48:25.241Z,80.60
2024-02-19T11:51:28.448Z,80.30
2024-02-19T11:54:34.822Z,79.90
2024-02-19T11:57:37.936Z,79.50
2024-02-19T12:00:41.006Z,80.10
2024-02-19T12:03:44.141Z,79.70
2024-02-19T12:06:47.496Z,79.80
2024-02-19T12:09:52.076Z,79.60
2024-02-19T12:12:56.766Z,79.50
2024-02-19T12:16:00.155Z,79.30
2024-02-19T12:19:03.415Z,79.10
2024-02-19T12:22:07.646Z,79.30
2024-02-19T12:25:13.655Z,78.90
2024-02-19T12:28:17.371Z,78.20
2024-02-19T12:31:21.073Z,78.40
2024-02-19T12:34:24.759Z,78.40
2024-02-19T12:37:28.027Z,78.00
2024-02-19T12:40:32.648Z,78.10
2024-02-19T12:43:36.317Z,77.80
2024-02-19T12:46:39.443Z,78.10
2024-02-19T12:49:42.788Z,77.50
2024-02-19T12:52:46.307Z,76.70
2024-02-19T12:55:50.681Z,76.50
2024-02-19T12:58:53.884Z,75.80
2024-02-19T13:01:57.266Z,75.50
2024-02-19T13:05:00.522Z,75.90
2024-02-19T13:08:03.828Z,76.00
2024-02-19T13:11:08.902Z,76.70
2024-02-19T13:14:12.016Z,77.30
2024-02-19T13:17:22.697Z,78.30
2024-02-19T13:20:29.172Z,78.80
2024-02-19T13:23:32.280Z,79.20
2024-02-19T13:26:36.790Z,79.70
2024-02-19T13:29:39.822Z,79.80
2024-02-19T13:32:47.755Z,79.50
2024-02-19T13:35:51.130Z,79.70
2024-02-19T13:38:54.159Z,80.00
2024-02-19T13:41:58.757Z,79.90
2024-02-19T13:45:01.965Z,80.00
2024-02-19T13:48:07.064Z,80.30
2024-02-19T13:51:10.223Z,80.70
2024-02-19T13:54:14.006Z,80.60
2024-02-19T13:57:18.563Z,80.20
2024-02-19T14:00:22.159Z,80.00
2024-02-19T14:03:25.730Z,79.40
2024-02-19T14:06:29.659Z,78.90
2024-02-19T14:09:32.819Z,78.90
2024-02-19T14:12:37.359Z,78.60
2024-02-19T14:15:40.846Z,78.50
2024-02-19T14:18:43.973Z,78.00
2024-02-19T14:21:48.765Z,77.30
2024-02-19T14:24:52.744Z,77.60
2024-02-19T14:27:57.236Z,77.80
2024-02-19T14:31:00.356Z,77.00
2024-02-19T14:34:04.587Z,76.90
2024-02-19T14:37:08.024Z,76.50
2024-02-19T14:40:14.816Z,76.80
2024-02-19T14:43:19.679Z,76.40
2024-02-19T14:46:23.385Z,75.50
2024-02-19T14:49:26.651Z,75.50
2024-02-19T14:52:29.901Z,75.50
2024-02-19T14:55:32.995Z,75.50
2024-02-19T14:58:37.527Z,75.80
2024-02-19T15:01:40.709Z,75.60
2024-02-19T15:04:43.938Z,75.30
2024-02-19T15:07:54.860Z,75.50
2024-02-19T15:10:58.692Z,75.40
2024-02-19T15:14:03.473Z,75.10
2024-02-19T15:17:07.552Z,75.00
2024-02-19T15:20:12.050Z,74.80
2024-02-19T15:23:15.429Z,75.10
2024-02-19T15:26:18.525Z,74.90
2024-02-19T15:29:24.433Z,74.70
2024-02-19T15:32:28.032Z,74.70
2024-02-19T15:35:31.339Z,74.70
2024-02-19T15:38:34.469Z,75.10
2024-02-19T15:41:39.114Z,75.00
2024-02-19T15:44:44.089Z,75.20
2024-02-19T15:47:47.247Z,75.70
2024-02-19T15:50:50.520Z,76.50
2024-02-19T15:53:54.122Z,77.20
2024-02-19T15:56:57.191Z,77.90
2024-02-19T16:00:01.615Z,78.10
2024-02-19T16:03:05.023Z,78.40
2024-02-19T16:06:08.289Z,78.30
2024-02-19T16:09:12.307Z,78.50
2024-02-19T16:12:15.556Z,78.60
2024-02-19T16:15:20.485Z,78.90
2024-02-19T16:18:23.682Z,79.00
2024-02-19T16:21:26.753Z,79.00
2024-02-19T16:24:34.662Z,79.00
2024-02-19T16:27:37.956Z,79.20
2024-02-19T16:30:42.386Z,79.00
2024-02-19T16:33:45.557Z,78.90
2024-02-19T16:36:48.598Z,78.90
2024-02-19T16:39:52.536Z,79.00
2024-02-19T16:42:55.713Z,79.50
2024-02-19T16:46:00.263Z,79.60
2024-02-19T16:49:03.443Z,79.50
2024-02-19T16:52:07.219Z,79.60
2024-02-19T16:55:10.743Z,79.70
2024-02-19T16:58:16.553Z,79.70
2024-02-19T17:01:21.351Z,80.30
2024-02-19T17:04:24.748Z,80.30
2024-02-19T17:07:31.098Z,80.50
2024-02-19T17:10:34.271Z,80.50
2024-02-19T17:13:38.223Z,80.70
2024-02-19T17:16:42.800Z,80.70
2024-02-19T17:19:45.976Z,81.10
2024-02-19T17:22:49.115Z,81.30
2024-02-19T17:25:52.116Z,81.60
2024-02-19T17:28:55.215Z,82.10
2024-02-19T17:31:59.594Z,82.20
2024-02-19T17:35:02.703Z,82.20
2024-02-19T17:38:06.085Z,82.30
2024-02-19T17:41:09.196Z,82.70
2024-02-19T17:44:13.223Z,82.90
2024-02-19T17:47:17.690Z,82.80
2024-02-19T17:50:21.290Z,82.80
2024-02-19T17:53:24.318Z,82.60
2024-02-19T17:56:27.625Z,82.70
2024-02-19T17:59:33.921Z,82.50
2024-02-19T18:02:38.423Z,82.10
2024-02-19T18:05:41.606Z,81.60
2024-02-19T18:08:44.726Z,81.60
2024-02-19T18:11:47.871Z,81.70
2024-02-19T18:14:50.966Z,81.50
2024-02-19T18:17:57.981Z,81.30
2024-02-19T18:21:01.275Z,81.00
2024-02-19T18:24:09.225Z,80.70
2024-02-19T18:27:13.291Z,80.70
2024-02-19T18:30:16.558Z,80.60
2024-02-19T18:33:23.251Z,80.50
2024-02-19T18:36:26.891Z,80.60
2024-02-19T18:39:33.285Z,80.60
2024-02-19T18:42:37.001Z,80.60
2024-02-19T18:45:42.313Z,81.00
2024-02-19T18:48:46.786Z,81.60
2024-02-19T18:51:50.361Z,81.90
2024-02-19T18:54:55.636Z,81.90
2024-02-19T18:57:59.792Z,82.40
2024-02-19T19:01:04.713Z,83.20
2024-02-19T19:04:09.384Z,83.20
2024-02-19T19:07:13.273Z,83.30
2024-02-19T19:10:17.102Z,83.60
2024-02-19T19:13:20.294Z,83.30
2024-02-19T19:16:23.567Z,83.60
2024-02-19T19:19:29.762Z,83.90
2024-02-19T19:22:33.080Z,84.10
2024-02-19T19:25:36.587Z,84.10
2024-02-19T19:28:39.795Z,84.30
2024-02-19T19:31:43.670Z,84.10
2024-02-19T19:34:48.343Z,83.90
2024-02-19T19:37:51.975Z,84.00
2024-02-19T19:40:57.715Z,84.20
2024-02-19T19:44:02.584Z,84.40
2024-02-19T19:47:06.055Z,84.30
2024-02-19T19:50:11.586Z,84.40
2024-02-19T19:53:16.503Z,83.90
2024-02-19T19:56:19.610Z,84.00
2024-02-19T19:59:23.050Z,83.80
2024-02-19T20:02:26.211Z,83.70
2024-02-19T20:05:30.939Z,83.80
2024-02-19T20:08:34.123Z,83.70
2024-02-19T20:11:37.337Z,83.70
2024-02-19T20:14:40.659Z,83.70
2024-02-19T20:17:44.006Z,84.00
2024-02-19T20:20:49.601Z,83.90
2024-02-19T20:23:54.713Z,83.90
2024-02-19T20:27:00.489Z,83.50
2024-02-19T20:30:03.776Z,83.50
2024-02-19T20:33:07.657Z,83.20
2024-02-19T20:36:13.333Z,83.30
2024-02-19T20:39:16.442Z,83.40
2024-02-19T20:42:19.552Z,83.60
2024-02-19T20:45:22.889Z,83.50
2024-02-19T20:48:26.123Z,83.40
2024-02-19T20:51:30.740Z,83.30
2024-02-19T20:54:35.170Z,83.20
2024-02-19T20:57:39.058Z,83.20
2024-02-19T21:00:42.186Z,83.00
2024-02-19T21:03:49.670Z,83.30
2024-02-19T21:06:54.901Z,83.30
2024-02-19T21:09:58.740Z,83.20
2024-02-19T21:13:02.180Z,83.20
2024-02-19T21:16:05.729Z,83.20
2024-02-19T21:19:09.148Z,83.20
2024-02-19T21:22:13.989Z,83.40
2024-02-19T21:25:17.368Z,83.40
2024-02-19T21:28:20.761Z,83.40
2024-02-19T21:31:23.947Z,83.30
2024-02-19T21:34:27.258Z,83.30
2024-02-19T21:37:31.933Z,83.30
2024-02-19T21:40:35.314Z,83.40
2024-02-19T21:43:38.574Z,83.30
2024-02-19T21:46:42.708Z,83.30
2024-02-19T21:49:46.372Z,83.40
2024-02-19T21:52:50.934Z,83.30
2024-02-19T21:55:54.028Z,83.00
2024-02-19T21:58:57.164Z,83.00
2024-02-19T22:02:00.573Z,82.90
2024-02-19T22:05:04.872Z,83.00
2024-02-19T22:08:09.806Z,83.00
2024-02-19T22:11:14.496Z,82.90
2024-02-19T22:14:17.658Z,82.80
2024-02-19T22:17:20.713Z,82.70
2024-02-19T22:20:24.020Z,82.80
2024-02-19T22:23:28.746Z,82.70
2024-02-19T22:26:31.797Z,82.80
2024-02-19T22:29:34.873Z,82.60
2024-02-19T22:32:37.946Z,82.70
2024-02-19T22:35:41.074Z,82.80
2024-02-19T22:38:46.609Z,82.80
2024-02-19T22:41:49.656Z,82.90
2024-02-19T22:44:53.414Z,82.80
2024-02-19T22:47:58.357Z,82.70
2024-02-19T22:51:01.569Z,82.80
2024-02-19T22:54:06.238Z,82.80
2024-02-19T22:57:11.510Z,82.90
2024-02-19T23:00:27.031Z,82.80
2024-02-19T23:03:30.495Z,83.00
2024-02-19T23:06:33.823Z,83.10
2024-02-19T23:09:38.398Z,83.10
2024-02-19T23:12:41.912Z,83.10
2024-02-19T23:15:45.041Z,82.90
2024-02-19T23:18:48.267Z,83.10
2024-02-19T23:21:51.492Z,83.40
2024-02-19T23:24:56.063Z,83.30
2024-02-19T23:27:59.698Z,83.00
2024-02-19T23:31:02.891Z,83.00
2024-02-19T23:34:06.289Z,83.10
2024-02-19T23:37:09.766Z,83.20
2024-02-19T23:40:19.044Z,83.00
2024-02-19T23:43:22.241Z,83.10
2024-02-19T23:46:25.780Z,82.80
2024-02-19T23:49:29.331Z,83.00
2024-02-19T23:52:33.104Z,83.00
2024-02-19T23:55:37.637Z,82.90
2024-02-19T23:58:40.721Z,82.90
